sensor_id;sensor_type;location;lat;lon;timestamp;temperature;humidity
41722;DHT22;27407;24.142;-110.310;2024-03-23T00:52:53;36.00;42.00
41722;DHT22;27407;24.142;-110.310;2024-03-23T00:55:19;36.20;42.40
41722;DHT22;27407;24.142;-110.310;2024-03-23T00:57:46;35.90;44.00
41722;DHT22;27407;24.142;-110.310;2024-03-23T01:00:13;35.80;43.40
41722;DHT22;27407;24.142;-110.310;2024-03-23T01:02:40;35.60;45.00
41722;DHT22;27407;24.142;-110.310;2024-03-23T01:05:06;35.30;45.30
41722;DHT22;27407;24.142;-110.310;2024-03-23T01:07:33;34.90;45.90
41722;DHT22;27407;24.142;-110.310;2024-03-23T01:10:00;35.10;45.90
41722;DHT22;27407;24.142;-110.310;2024-03-23T01:12:26;34.80;46.00
41722;DHT22;27407;24.142;-110.310;2024-03-23T01:14:53;34.40;46.90
41722;DHT22;27407;24.142;-110.310;2024-03-23T01:17:19;34.40;47.40
41722;DHT22;27407;24.142;-110.310;2024-03-23T01:19:46;34.10;47.90
41722;DHT22;27407;24.142;-110.310;2024-03-23T01:22:12;33.70;48.90
41722;DHT22;27407;24.142;-110.310;2024-03-23T01:24:39;33.20;49.90
41722;DHT22;27407;24.142;-110.310;2024-03-23T01:27:05;32.40;50.90
41722;DHT22;27407;24.142;-110.310;2024-03-23T01:29:32;31.80;51.80
41722;DHT22;27407;24.142;-110.310;2024-03-23T01:31:59;31.20;52.70
41722;DHT22;27407;24.142;-110.310;2024-03-23T01:34:25;30.30;54.60
41722;DHT22;27407;24.142;-110.310;2024-03-23T01:36:52;29.90;55.10
41722;DHT22;27407;24.142;-110.310;2024-03-23T01:39:19;29.80;57.10
41722;DHT22;27407;24.142;-110.310;2024-03-23T01:41:45;29.60;55.50
41722;DHT22;27407;24.142;-110.310;2024-03-23T01:44:12;29.50;55.90
41722;DHT22;27407;24.142;-110.310;2024-03-23T01:46:39;29.50;56.60
41722;DHT22;27407;24.142;-110.310;2024-03-23T01:49:07;29.20;57.80
41722;DHT22;27407;24.142;-110.310;2024-03-23T01:51:36;28.90;57.80
41722;DHT22;27407;24.142;-110.310;2024-03-23T01:54:03;28.60;57.80
41722;DHT22;27407;24.142;-110.310;2024-03-23T01:56:35;28.40;57.20
41722;DHT22;27407;24.142;-110.310;2024-03-23T01:59:02;28.40;57.80
41722;DHT22;27407;24.142;-110.310;2024-03-23T02:01:29;28.40;58.90
41722;DHT22;27407;24.142;-110.310;2024-03-23T02:03:56;28.20;59.90
41722;DHT22;27407;24.142;-110.310;2024-03-23T02:06:24;27.90;60.10
41722;DHT22;27407;24.142;-110.310;2024-03-23T02:08:51;27.70;60.80
41722;DHT22;27407;24.142;-110.310;2024-03-23T02:11:18;27.50;62.00
41722;DHT22;27407;24.142;-110.310;2024-03-23T02:13:44;27.20;62.40
41722;DHT22;27407;24.142;-110.310;2024-03-23T02:16:11;27.10;63.50
41722;DHT22;27407;24.142;-110.310;2024-03-23T02:18:39;27.00;62.00
41722;DHT22;27407;24.142;-110.310;2024-03-23T02:21:06;26.80;62.50
41722;DHT22;27407;24.142;-110.310;2024-03-23T02:23:32;26.80;63.10
41722;DHT22;27407;24.142;-110.310;2024-03-23T02:25:59;26.50;64.10
41722;DHT22;27407;24.142;-110.310;2024-03-23T02:28:25;26.30;65.00
41722;DHT22;27407;24.142;-110.310;2024-03-23T02:30:52;26.20;64.90
41722;DHT22;27407;24.142;-110.310;2024-03-23T02:33:19;26.00;65.10
41722;DHT22;27407;24.142;-110.310;2024-03-23T02:35:46;26.00;65.80
41722;DHT22;27407;24.142;-110.310;2024-03-23T02:38:12;25.80;73.00
41722;DHT22;27407;24.142;-110.310;2024-03-23T02:40:39;25.60;88.60
41722;DHT22;27407;24.142;-110.310;2024-03-23T02:43:06;25.50;93.50
41722;DHT22;27407;24.142;-110.310;2024-03-23T02:45:32;25.40;95.90
41722;DHT22;27407;24.142;-110.310;2024-03-23T02:47:59;25.40;97.30
41722;DHT22;27407;24.142;-110.310;2024-03-23T02:50:25;25.30;98.90
41722;DHT22;27407;24.142;-110.310;2024-03-23T02:52:52;25.30;99.80
41722;DHT22;27407;24.142;-110.310;2024-03-23T02:55:18;25.20;99.90
41722;DHT22;27407;24.142;-110.310;2024-03-23T02:57:46;25.20;99.90
41722;DHT22;27407;24.142;-110.310;2024-03-23T03:00:13;25.00;99.90
41722;DHT22;27407;24.142;-110.310;2024-03-23T03:02:39;25.00;99.90
41722;DHT22;27407;24.142;-110.310;2024-03-23T03:05:06;25.00;99.90
41722;DHT22;27407;24.142;-110.310;2024-03-23T03:07:34;24.90;99.90
41722;DHT22;27407;24.142;-110.310;2024-03-23T03:10:01;24.90;99.90
41722;DHT22;27407;24.142;-110.310;2024-03-23T03:12:28;24.80;99.90
41722;DHT22;27407;24.142;-110.310;2024-03-23T03:14:54;24.80;99.90
41722;DHT22;27407;24.142;-110.310;2024-03-23T03:17:21;24.80;99.90
41722;DHT22;27407;24.142;-110.310;2024-03-23T03:19:47;24.80;99.90
41722;DHT22;27407;24.142;-110.310;2024-03-23T03:22:14;24.80;99.90
41722;DHT22;27407;24.142;-110.310;2024-03-23T03:24:41;24.60;99.90
41722;DHT22;27407;24.142;-110.310;2024-03-23T03:27:08;24.60;99.90
41722;DHT22;27407;24.142;-110.310;2024-03-23T03:29:35;24.40;99.90
41722;DHT22;27407;24.142;-110.310;2024-03-23T03:32:05;24.30;99.90
41722;DHT22;27407;24.142;-110.310;2024-03-23T03:34:32;24.30;99.90
41722;DHT22;27407;24.142;-110.310;2024-03-23T03:36:58;24.20;99.90
41722;DHT22;27407;24.142;-110.310;2024-03-23T03:39:25;24.10;99.90
41722;DHT22;27407;24.142;-110.310;2024-03-23T03:41:52;24.00;99.90
41722;DHT22;27407;24.142;-110.310;2024-03-23T03:44:19;23.90;99.90
41722;DHT22;27407;24.142;-110.310;2024-03-23T03:46:46;23.90;99.90
41722;DHT22;27407;24.142;-110.310;2024-03-23T03:49:12;23.90;99.90
41722;DHT22;27407;24.142;-110.310;2024-03-23T03:51:39;23.90;99.90
41722;DHT22;27407;24.142;-110.310;2024-03-23T03:54:05;23.90;99.90
41722;DHT22;27407;24.142;-110.310;2024-03-23T03:56:32;23.90;99.90
41722;DHT22;27407;24.142;-110.310;2024-03-23T03:58:59;23.90;99.90
41722;DHT22;27407;24.142;-110.310;2024-03-23T04:01:25;23.80;99.90
41722;DHT22;27407;24.142;-110.310;2024-03-23T04:03:52;23.80;99.90
41722;DHT22;27407;24.142;-110.310;2024-03-23T04:06:21;23.80;99.90
41722;DHT22;27407;24.142;-110.310;2024-03-23T04:08:48;23.90;99.90
41722;DHT22;27407;24.142;-110.310;2024-03-23T04:11:15;24.00;99.90
41722;DHT22;27407;24.142;-110.310;2024-03-23T04:13:41;24.00;99.90
41722;DHT22;27407;24.142;-110.310;2024-03-23T04:16:08;23.90;99.90
41722;DHT22;27407;24.142;-110.310;2024-03-23T04:18:37;23.80;99.90
41722;DHT22;27407;24.142;-110.310;2024-03-23T04:21:04;23.60;99.90
41722;DHT22;27407;24.142;-110.310;2024-03-23T04:23:30;23.50;99.90
41722;DHT22;27407;24.142;-110.310;2024-03-23T04:26:03;23.50;99.90
41722;DHT22;27407;24.142;-110.310;2024-03-23T04:28:30;23.50;99.90
41722;DHT22;27407;24.142;-110.310;2024-03-23T04:30:56;23.50;99.90
41722;DHT22;27407;24.142;-110.310;2024-03-23T04:33:23;23.30;99.90
41722;DHT22;27407;24.142;-110.310;2024-03-23T04:35:50;23.20;99.90
41722;DHT22;27407;24.142;-110.310;2024-03-23T04:38:17;23.20;99.90
41722;DHT22;27407;24.142;-110.310;2024-03-23T04:40:43;23.20;99.90
41722;DHT22;27407;24.142;-110.310;2024-03-23T04:43:10;23.20;99.90
41722;DHT22;27407;24.142;-110.310;2024-03-23T04:45:37;23.20;99.90
41722;DHT22;27407;24.142;-110.310;2024-03-23T04:48:03;23.00;99.90
41722;DHT22;27407;24.142;-110.310;2024-03-23T04:50:30;22.90;99.90
41722;DHT22;27407;24.142;-110.310;2024-03-23T04:52:56;22.70;99.90
41722;DHT22;27407;24.142;-110.310;2024-03-23T04:55:23;22.70;99.90
41722;DHT22;27407;24.142;-110.310;2024-03-23T04:57:50;22.70;99.90
41722;DHT22;27407;24.142;-110.310;2024-03-23T05:00:16;22.70;99.90
41722;DHT22;27407;24.142;-110.310;2024-03-23T05:02:44;22.60;99.90
41722;DHT22;27407;24.142;-110.310;2024-03-23T05:05:11;22.60;99.90
41722;DHT22;27407;24.142;-110.310;2024-03-23T05:07:38;22.60;99.90
41722;DHT22;27407;24.142;-110.310;2024-03-23T05:10:05;22.60;99.90
41722;DHT22;27407;24.142;-110.310;2024-03-23T05:12:39;22.50;99.90
41722;DHT22;27407;24.142;-110.310;2024-03-23T05:15:06;22.40;99.90
41722;DHT22;27407;24.142;-110.310;2024-03-23T05:17:36;22.40;99.90
41722;DHT22;27407;24.142;-110.310;2024-03-23T05:20:04;22.20;99.90
41722;DHT22;27407;24.142;-110.310;2024-03-23T05:22:38;22.20;99.90
41722;DHT22;27407;24.142;-110.310;2024-03-23T05:25:05;22.10;99.90
41722;DHT22;27407;24.142;-110.310;2024-03-23T05:27:32;21.90;99.90
41722;DHT22;27407;24.142;-110.310;2024-03-23T05:29:59;22.00;99.90
41722;DHT22;27407;24.142;-110.310;2024-03-23T05:32:26;22.10;99.90
41722;DHT22;27407;24.142;-110.310;2024-03-23T05:34:53;22.40;99.90
41722;DHT22;27407;24.142;-110.310;2024-03-23T05:37:23;22.50;99.90
41722;DHT22;27407;24.142;-110.310;2024-03-23T05:39:50;22.50;99.90
41722;DHT22;27407;24.142;-110.310;2024-03-23T05:42:17;22.40;99.90
41722;DHT22;27407;24.142;-110.310;2024-03-23T05:44:46;22.30;99.90
41722;DHT22;27407;24.142;-110.310;2024-03-23T05:47:14;22.20;99.90
41722;DHT22;27407;24.142;-110.310;2024-03-23T05:49:43;22.20;99.90
41722;DHT22;27407;24.142;-110.310;2024-03-23T05:52:10;22.20;99.90
41722;DHT22;27407;24.142;-110.310;2024-03-23T05:54:37;21.90;99.90
41722;DHT22;27407;24.142;-110.310;2024-03-23T05:57:04;21.90;99.90
41722;DHT22;27407;24.142;-110.310;2024-03-23T05:59:33;21.90;99.90
41722;DHT22;27407;24.142;-110.310;2024-03-23T06:02:00;22.00;99.90
41722;DHT22;27407;24.142;-110.310;2024-03-23T06:04:26;21.90;99.90
41722;DHT22;27407;24.142;-110.310;2024-03-23T06:06:53;21.80;99.90
41722;DHT22;27407;24.142;-110.310;2024-03-23T06:09:19;21.70;99.90
41722;DHT22;27407;24.142;-110.310;2024-03-23T06:11:46;21.70;99.90
41722;DHT22;27407;24.142;-110.310;2024-03-23T06:14:13;21.90;99.90
41722;DHT22;27407;24.142;-110.310;2024-03-23T06:16:39;21.70;99.90
41722;DHT22;27407;24.142;-110.310;2024-03-23T06:19:06;21.80;99.90
41722;DHT22;27407;24.142;-110.310;2024-03-23T06:21:33;21.70;99.90
41722;DHT22;27407;24.142;-110.310;2024-03-23T06:24:00;21.70;99.90
41722;DHT22;27407;24.142;-110.310;2024-03-23T06:26:26;21.70;99.90
41722;DHT22;27407;24.142;-110.310;2024-03-23T06:28:53;21.70;99.90
41722;DHT22;27407;24.142;-110.310;2024-03-23T06:31:20;21.80;99.90
41722;DHT22;27407;24.142;-110.310;2024-03-23T06:33:46;21.90;99.90
41722;DHT22;27407;24.142;-110.310;2024-03-23T06:36:13;21.80;99.90
41722;DHT22;27407;24.142;-110.310;2024-03-23T06:38:39;21.70;99.90
41722;DHT22;27407;24.142;-110.310;2024-03-23T06:41:06;21.60;99.90
41722;DHT22;27407;24.142;-110.310;2024-03-23T06:43:33;21.60;99.90
41722;DHT22;27407;24.142;-110.310;2024-03-23T06:45:59;21.60;99.90
41722;DHT22;27407;24.142;-110.310;2024-03-23T06:48:26;21.60;99.90
41722;DHT22;27407;24.142;-110.310;2024-03-23T06:50:56;21.60;99.90
41722;DHT22;27407;24.142;-110.310;2024-03-23T06:53:23;21.50;99.90
41722;DHT22;27407;24.142;-110.310;2024-03-23T06:55:53;21.50;99.90
41722;DHT22;27407;24.142;-110.310;2024-03-23T06:58:21;21.60;99.90
41722;DHT22;27407;24.142;-110.310;2024-03-23T07:00:48;21.60;99.90
41722;DHT22;27407;24.142;-110.310;2024-03-23T07:03:16;21.60;99.90
41722;DHT22;27407;24.142;-110.310;2024-03-23T07:05:43;21.60;99.90
41722;DHT22;27407;24.142;-110.310;2024-03-23T07:08:10;21.60;99.90
41722;DHT22;27407;24.142;-110.310;2024-03-23T07:10:39;21.60;99.90
41722;DHT22;27407;24.142;-110.310;2024-03-23T07:13:06;21.50;99.90
41722;DHT22;27407;24.142;-110.310;2024-03-23T07:15:33;21.30;99.90
41722;DHT22;27407;24.142;-110.310;2024-03-23T07:18:00;21.30;99.90
41722;DHT22;27407;24.142;-110.310;2024-03-23T07:20:26;21.40;99.90
41722;DHT22;27407;24.142;-110.310;2024-03-23T07:22:53;21.30;99.90
41722;DHT22;27407;24.142;-110.310;2024-03-23T07:25:19;21.20;99.90
41722;DHT22;27407;24.142;-110.310;2024-03-23T07:27:47;21.20;99.90
41722;DHT22;27407;24.142;-110.310;2024-03-23T07:30:14;21.10;99.90
41722;DHT22;27407;24.142;-110.310;2024-03-23T07:32:40;21.10;99.90
41722;DHT22;27407;24.142;-110.310;2024-03-23T07:35:07;21.10;99.90
41722;DHT22;27407;24.142;-110.310;2024-03-23T07:37:34;21.10;99.90
41722;DHT22;27407;24.142;-110.310;2024-03-23T07:40:00;21.00;99.90
41722;DHT22;27407;24.142;-110.310;2024-03-23T07:42:27;21.00;99.90
41722;DHT22;27407;24.142;-110.310;2024-03-23T07:44:54;21.40;99.90
41722;DHT22;27407;24.142;-110.310;2024-03-23T07:47:23;21.60;99.90
41722;DHT22;27407;24.142;-110.310;2024-03-23T07:49:49;21.80;99.90
41722;DHT22;27407;24.142;-110.310;2024-03-23T07:52:16;21.90;99.90
41722;DHT22;27407;24.142;-110.310;2024-03-23T07:54:43;22.00;99.90
41722;DHT22;27407;24.142;-110.310;2024-03-23T07:57:09;21.90;99.90
41722;DHT22;27407;24.142;-110.310;2024-03-23T07:59:36;22.00;99.90
41722;DHT22;27407;24.142;-110.310;2024-03-23T08:02:02;21.90;99.90
41722;DHT22;27407;24.142;-110.310;2024-03-23T08:04:29;22.00;99.90
41722;DHT22;27407;24.142;-110.310;2024-03-23T08:06:56;22.00;99.90
41722;DHT22;27407;24.142;-110.310;2024-03-23T08:09:23;22.10;99.90
41722;DHT22;27407;24.142;-110.310;2024-03-23T08:11:49;22.10;99.90
41722;DHT22;27407;24.142;-110.310;2024-03-23T08:14:16;22.10;99.90
41722;DHT22;27407;24.142;-110.310;2024-03-23T08:16:42;22.00;99.90
41722;DHT22;27407;24.142;-110.310;2024-03-23T08:19:15;21.90;99.90
41722;DHT22;27407;24.142;-110.310;2024-03-23T08:21:41;21.80;99.90
41722;DHT22;27407;24.142;-110.310;2024-03-23T08:24:08;21.60;99.90
41722;DHT22;27407;24.142;-110.310;2024-03-23T08:26:35;21.40;99.90
41722;DHT22;27407;24.142;-110.310;2024-03-23T08:29:03;21.30;99.90
41722;DHT22;27407;24.142;-110.310;2024-03-23T08:31:30;21.20;99.90
41722;DHT22;27407;24.142;-110.310;2024-03-23T08:33:57;21.20;99.90
41722;DHT22;27407;24.142;-110.310;2024-03-23T08:36:24;21.10;99.90
41722;DHT22;27407;24.142;-110.310;2024-03-23T08:38:50;21.00;99.90
41722;DHT22;27407;24.142;-110.310;2024-03-23T08:41:19;20.90;99.90
41722;DHT22;27407;24.142;-110.310;2024-03-23T08:43:46;20.90;99.90
41722;DHT22;27407;24.142;-110.310;2024-03-23T08:46:14;20.80;99.90
41722;DHT22;27407;24.142;-110.310;2024-03-23T08:48:43;20.70;99.90
41722;DHT22;27407;24.142;-110.310;2024-03-23T08:51:15;20.50;99.90
41722;DHT22;27407;24.142;-110.310;2024-03-23T08:53:42;20.50;99.90
41722;DHT22;27407;24.142;-110.310;2024-03-23T08:56:09;20.40;99.90
41722;DHT22;27407;24.142;-110.310;2024-03-23T08:58:37;20.40;99.90
41722;DHT22;27407;24.142;-110.310;2024-03-23T09:01:09;20.20;99.90
41722;DHT22;27407;24.142;-110.310;2024-03-23T09:03:36;20.10;99.90
41722;DHT22;27407;24.142;-110.310;2024-03-23T09:06:08;20.00;99.90
41722;DHT22;27407;24.142;-110.310;2024-03-23T09:08:35;20.00;99.90
41722;DHT22;27407;24.142;-110.310;2024-03-23T09:11:10;19.90;99.90
41722;DHT22;27407;24.142;-110.310;2024-03-23T09:13:37;19.80;99.90
41722;DHT22;27407;24.142;-110.310;2024-03-23T09:16:05;19.80;99.90
41722;DHT22;27407;24.142;-110.310;2024-03-23T09:18:33;19.80;99.90
41722;DHT22;27407;24.142;-110.310;2024-03-23T09:21:03;19.70;99.90
41722;DHT22;27407;24.142;-110.310;2024-03-23T09:23:30;19.80;99.90
41722;DHT22;27407;24.142;-110.310;2024-03-23T09:25:57;19.70;99.90
41722;DHT22;27407;24.142;-110.310;2024-03-23T09:28:23;19.70;99.90
41722;DHT22;27407;24.142;-110.310;2024-03-23T09:30:50;19.60;99.90
41722;DHT22;27407;24.142;-110.310;2024-03-23T09:33:16;19.40;99.90
41722;DHT22;27407;24.142;-110.310;2024-03-23T09:35:44;19.40;99.90
41722;DHT22;27407;24.142;-110.310;2024-03-23T09:38:13;19.40;99.90
41722;DHT22;27407;24.142;-110.310;2024-03-23T09:40:43;19.40;99.90
41722;DHT22;27407;24.142;-110.310;2024-03-23T09:43:10;19.40;99.90
41722;DHT22;27407;24.142;-110.310;2024-03-23T09:45:40;19.40;99.90
41722;DHT22;27407;24.142;-110.310;2024-03-23T09:48:08;19.30;99.90
41722;DHT22;27407;24.142;-110.310;2024-03-23T09:50:44;19.20;99.90
41722;DHT22;27407;24.142;-110.310;2024-03-23T09:53:11;19.20;99.90
41722;DHT22;27407;24.142;-110.310;2024-03-23T09:55:42;19.00;99.90
41722;DHT22;27407;24.142;-110.310;2024-03-23T09:58:13;19.00;99.90
41722;DHT22;27407;24.142;-110.310;2024-03-23T10:00:39;19.00;99.90
41722;DHT22;27407;24.142;-110.310;2024-03-23T10:03:06;19.00;99.90
41722;DHT22;27407;24.142;-110.310;2024-03-23T10:05:33;19.00;99.90
41722;DHT22;27407;24.142;-110.310;2024-03-23T10:08:23;19.00;99.90
41722;DHT22;27407;24.142;-110.310;2024-03-23T10:10:49;19.00;99.90
41722;DHT22;27407;24.142;-110.310;2024-03-23T10:13:28;18.90;99.90
41722;DHT22;27407;24.142;-110.310;2024-03-23T10:15:57;18.90;99.90
41722;DHT22;27407;24.142;-110.310;2024-03-23T10:18:24;18.90;99.90
41722;DHT22;27407;24.142;-110.310;2024-03-23T10:23:35;19.10;99.90
41722;DHT22;27407;24.142;-110.310;2024-03-23T10:26:15;19.20;99.90
41722;DHT22;27407;24.142;-110.310;2024-03-23T10:29:01;19.40;99.90
41722;DHT22;27407;24.142;-110.310;2024-03-23T10:31:30;19.60;99.90
41722;DHT22;27407;24.142;-110.310;2024-03-23T10:33:57;19.90;99.90
41722;DHT22;27407;24.142;-110.310;2024-03-23T10:36:25;19.80;99.90
41722;DHT22;27407;24.142;-110.310;2024-03-23T10:38:54;19.90;99.90
41722;DHT22;27407;24.142;-110.310;2024-03-23T10:41:20;19.80;99.90
41722;DHT22;27407;24.142;-110.310;2024-03-23T10:43:48;19.80;99.90
41722;DHT22;27407;24.142;-110.310;2024-03-23T10:46:16;19.70;99.90
41722;DHT22;27407;24.142;-110.310;2024-03-23T10:48:43;19.70;99.90
41722;DHT22;27407;24.142;-110.310;2024-03-23T10:51:10;19.70;99.90
41722;DHT22;27407;24.142;-110.310;2024-03-23T10:53:37;19.80;99.90
41722;DHT22;27407;24.142;-110.310;2024-03-23T10:56:05;19.80;99.90
41722;DHT22;27407;24.142;-110.310;2024-03-23T10:58:42;19.80;99.90
41722;DHT22;27407;24.142;-110.310;2024-03-23T11:01:16;19.70;99.90
41722;DHT22;27407;24.142;-110.310;2024-03-23T11:03:47;19.80;99.90
41722;DHT22;27407;24.142;-110.310;2024-03-23T11:06:46;19.80;99.90
41722;DHT22;27407;24.142;-110.310;2024-03-23T11:12:29;19.90;99.90
41722;DHT22;27407;24.142;-110.310;2024-03-23T11:14:59;19.80;99.90
41722;DHT22;27407;24.142;-110.310;2024-03-23T11:17:27;19.80;99.90
41722;DHT22;27407;24.142;-110.310;2024-03-23T11:20:00;19.80;99.90
41722;DHT22;27407;24.142;-110.310;2024-03-23T11:22:40;19.80;99.90
41722;DHT22;27407;24.142;-110.310;2024-03-23T11:27:43;19.80;99.90
41722;DHT22;27407;24.142;-110.310;2024-03-23T11:30:14;19.70;99.90
41722;DHT22;27407;24.142;-110.310;2024-03-23T11:32:48;19.90;99.90
41722;DHT22;27407;24.142;-110.310;2024-03-23T11:35:31;20.00;99.90
41722;DHT22;27407;24.142;-110.310;2024-03-23T11:38:14;20.00;99.90
41722;DHT22;27407;24.142;-110.310;2024-03-23T11:40:42;20.00;99.90
41722;DHT22;27407;24.142;-110.310;2024-03-23T11:43:15;20.00;99.90
41722;DHT22;27407;24.142;-110.310;2024-03-23T11:45:46;20.00;99.90
41722;DHT22;27407;24.142;-110.310;2024-03-23T11:48:21;20.00;99.90
41722;DHT22;27407;24.142;-110.310;2024-03-23T11:50:55;19.90;99.90
41722;DHT22;27407;24.142;-110.310;2024-03-23T11:53:24;19.90;99.90
41722;DHT22;27407;24.142;-110.310;2024-03-23T11:56:00;19.70;99.90
41722;DHT22;27407;24.142;-110.310;2024-03-23T11:58:29;19.60;99.90
41722;DHT22;27407;24.142;-110.310;2024-03-23T12:01:05;19.50;99.90
41722;DHT22;27407;24.142;-110.310;2024-03-23T12:03:36;19.50;99.90
41722;DHT22;27407;24.142;-110.310;2024-03-23T12:06:04;19.40;99.90
41722;DHT22;27407;24.142;-110.310;2024-03-23T12:08:32;19.50;99.90
41722;DHT22;27407;24.142;-110.310;2024-03-23T12:11:13;19.40;99.90
41722;DHT22;27407;24.142;-110.310;2024-03-23T12:13:42;19.50;99.90
41722;DHT22;27407;24.142;-110.310;2024-03-23T12:16:17;19.60;99.90
41722;DHT22;27407;24.142;-110.310;2024-03-23T12:18:48;19.70;99.90
41722;DHT22;27407;24.142;-110.310;2024-03-23T12:21:17;19.80;99.90
41722;DHT22;27407;24.142;-110.310;2024-03-23T12:23:44;19.70;99.90
41722;DHT22;27407;24.142;-110.310;2024-03-23T12:26:12;19.70;99.90
41722;DHT22;27407;24.142;-110.310;2024-03-23T12:28:39;19.60;99.90
41722;DHT22;27407;24.142;-110.310;2024-03-23T12:31:06;19.70;99.90
41722;DHT22;27407;24.142;-110.310;2024-03-23T12:33:33;19.60;99.90
41722;DHT22;27407;24.142;-110.310;2024-03-23T12:35:59;19.70;99.90
41722;DHT22;27407;24.142;-110.310;2024-03-23T12:38:26;19.70;99.90
41722;DHT22;27407;24.142;-110.310;2024-03-23T12:40:53;19.60;99.90
41722;DHT22;27407;24.142;-110.310;2024-03-23T12:43:19;19.70;99.90
41722;DHT22;27407;24.142;-110.310;2024-03-23T12:45:49;19.60;99.90
41722;DHT22;27407;24.142;-110.310;2024-03-23T12:48:16;19.60;99.90
41722;DHT22;27407;24.142;-110.310;2024-03-23T12:50:43;19.60;99.90
41722;DHT22;27407;24.142;-110.310;2024-03-23T12:53:09;19.60;99.90
41722;DHT22;27407;24.142;-110.310;2024-03-23T12:55:36;19.60;99.90
41722;DHT22;27407;24.142;-110.310;2024-03-23T12:58:03;19.50;99.90
41722;DHT22;27407;24.142;-110.310;2024-03-23T13:00:30;19.70;99.90
41722;DHT22;27407;24.142;-110.310;2024-03-23T13:02:57;19.60;99.90
41722;DHT22;27407;24.142;-110.310;2024-03-23T13:05:23;19.60;99.90
41722;DHT22;27407;24.142;-110.310;2024-03-23T13:07:50;19.50;99.90
41722;DHT22;27407;24.142;-110.310;2024-03-23T13:10:16;19.40;99.90
41722;DHT22;27407;24.142;-110.310;2024-03-23T13:12:43;19.40;99.90
41722;DHT22;27407;24.142;-110.310;2024-03-23T13:15:10;19.40;99.90
41722;DHT22;27407;24.142;-110.310;2024-03-23T13:17:36;19.30;99.90
41722;DHT22;27407;24.142;-110.310;2024-03-23T13:20:03;19.10;99.90
41722;DHT22;27407;24.142;-110.310;2024-03-23T13:22:30;19.10;99.90
41722;DHT22;27407;24.142;-110.310;2024-03-23T13:24:56;19.20;99.90
41722;DHT22;27407;24.142;-110.310;2024-03-23T13:27:23;19.20;99.90
41722;DHT22;27407;24.142;-110.310;2024-03-23T13:29:50;19.20;99.90
41722;DHT22;27407;24.142;-110.310;2024-03-23T13:32:16;19.10;99.90
41722;DHT22;27407;24.142;-110.310;2024-03-23T13:34:43;19.00;99.90
41722;DHT22;27407;24.142;-110.310;2024-03-23T13:37:10;19.10;99.90
41722;DHT22;27407;24.142;-110.310;2024-03-23T13:39:36;19.00;99.90
41722;DHT22;27407;24.142;-110.310;2024-03-23T13:42:03;19.00;99.90
41722;DHT22;27407;24.142;-110.310;2024-03-23T13:44:30;19.20;99.90
41722;DHT22;27407;24.142;-110.310;2024-03-23T13:46:56;19.00;99.90
41722;DHT22;27407;24.142;-110.310;2024-03-23T13:49:30;19.10;99.90
41722;DHT22;27407;24.142;-110.310;2024-03-23T13:51:58;19.10;99.90
41722;DHT22;27407;24.142;-110.310;2024-03-23T13:54:26;19.20;99.90
41722;DHT22;27407;24.142;-110.310;2024-03-23T13:56:55;19.30;99.90
41722;DHT22;27407;24.142;-110.310;2024-03-23T13:59:22;19.40;99.90
41722;DHT22;27407;24.142;-110.310;2024-03-23T14:01:49;19.50;99.90
41722;DHT22;27407;24.142;-110.310;2024-03-23T14:04:19;19.60;99.90
41722;DHT22;27407;24.142;-110.310;2024-03-23T14:06:46;19.40;99.90
41722;DHT22;27407;24.142;-110.310;2024-03-23T14:09:13;19.40;99.90
41722;DHT22;27407;24.142;-110.310;2024-03-23T14:11:43;19.50;99.90
41722;DHT22;27407;24.142;-110.310;2024-03-23T14:14:10;19.50;99.90
41722;DHT22;27407;24.142;-110.310;2024-03-23T14:16:36;19.60;99.90
41722;DHT22;27407;24.142;-110.310;2024-03-23T14:19:03;19.60;99.90
41722;DHT22;27407;24.142;-110.310;2024-03-23T14:21:31;19.70;99.90
41722;DHT22;27407;24.142;-110.310;2024-03-23T14:23:58;19.70;99.90
41722;DHT22;27407;24.142;-110.310;2024-03-23T14:26:27;19.90;99.90
41722;DHT22;27407;24.142;-110.310;2024-03-23T14:28:54;20.00;99.90
41722;DHT22;27407;24.142;-110.310;2024-03-23T14:31:20;20.20;99.90
41722;DHT22;27407;24.142;-110.310;2024-03-23T14:33:47;20.30;99.90
41722;DHT22;27407;24.142;-110.310;2024-03-23T14:36:15;20.40;99.90
41722;DHT22;27407;24.142;-110.310;2024-03-23T14:38:46;20.70;99.90
41722;DHT22;27407;24.142;-110.310;2024-03-23T14:41:13;20.80;99.90
41722;DHT22;27407;24.142;-110.310;2024-03-23T14:43:39;20.90;99.90
41722;DHT22;27407;24.142;-110.310;2024-03-23T14:46:13;21.00;99.90
41722;DHT22;27407;24.142;-110.310;2024-03-23T14:48:41;21.10;99.90
41722;DHT22;27407;24.142;-110.310;2024-03-23T14:51:09;21.20;99.90
41722;DHT22;27407;24.142;-110.310;2024-03-23T14:53:37;21.30;99.90
41722;DHT22;27407;24.142;-110.310;2024-03-23T14:56:07;21.50;99.90
41722;DHT22;27407;24.142;-110.310;2024-03-23T14:58:34;21.50;99.90
41722;DHT22;27407;24.142;-110.310;2024-03-23T15:01:05;21.60;99.90
41722;DHT22;27407;24.142;-110.310;2024-03-23T15:03:38;21.70;99.90
41722;DHT22;27407;24.142;-110.310;2024-03-23T15:06:06;21.90;99.90
41722;DHT22;27407;24.142;-110.310;2024-03-23T15:08:35;22.00;99.90
41722;DHT22;27407;24.142;-110.310;2024-03-23T15:11:03;22.10;99.90
41722;DHT22;27407;24.142;-110.310;2024-03-23T15:13:34;22.30;99.90
41722;DHT22;27407;24.142;-110.310;2024-03-23T15:16:01;22.50;99.90
41722;DHT22;27407;24.142;-110.310;2024-03-23T15:18:30;22.50;99.90
41722;DHT22;27407;24.142;-110.310;2024-03-23T15:20:58;22.60;99.90
41722;DHT22;27407;24.142;-110.310;2024-03-23T15:23:44;22.70;99.90
41722;DHT22;27407;24.142;-110.310;2024-03-23T15:26:11;23.00;99.90
41722;DHT22;27407;24.142;-110.310;2024-03-23T15:28:38;23.00;99.90
41722;DHT22;27407;24.142;-110.310;2024-03-23T15:31:10;23.10;99.90
41722;DHT22;27407;24.142;-110.310;2024-03-23T15:33:37;23.20;99.90
41722;DHT22;27407;24.142;-110.310;2024-03-23T15:36:05;23.30;99.90
41722;DHT22;27407;24.142;-110.310;2024-03-23T15:38:33;23.50;99.90
41722;DHT22;27407;24.142;-110.310;2024-03-23T15:40:59;23.60;99.90
41722;DHT22;27407;24.142;-110.310;2024-03-23T15:43:26;23.70;99.90
41722;DHT22;27407;24.142;-110.310;2024-03-23T15:46:00;24.00;99.90
41722;DHT22;27407;24.142;-110.310;2024-03-23T15:48:28;24.10;99.90
41722;DHT22;27407;24.142;-110.310;2024-03-23T15:50:59;24.30;99.90
41722;DHT22;27407;24.142;-110.310;2024-03-23T15:53:26;24.30;99.90